createdAt,value
2022-12-04T16:02:44.221Z,1.40
2022-12-04T16:05:14.325Z,1.50
2022-12-04T16:07:51.208Z,1.60
2022-12-04T16:10:22.169Z,1.70
2022-12-04T16:12:54.707Z,1.60
2022-12-04T16:15:23.548Z,1.70
2022-12-04T16:17:53.704Z,1.70
2022-12-04T16:20:22.065Z,1.60
2022-12-04T16:22:54.406Z,1.80
2022-12-04T16:25:22.396Z,1.80
2022-12-04T16:27:50.476Z,1.83
2022-12-04T16:30:18.760Z,1.70
2022-12-04T16:32:47.077Z,1.70
2022-12-04T16:35:17.677Z,1.70
2022-12-04T16:37:46.098Z,1.53
2022-12-04T16:40:15.499Z,1.77
2022-12-04T16:42:44.294Z,1.70
2022-12-04T16:45:24.675Z,1.90
2022-12-04T16:47:53.027Z,1.80
2022-12-04T16:50:22.832Z,1.80
2022-12-04T16:52:50.846Z,1.80
2022-12-04T16:55:25.920Z,1.90
2022-12-04T16:57:54.006Z,2.10
2022-12-04T17:00:22.203Z,1.73
2022-12-04T17:02:50.292Z,1.90
2022-12-04T17:05:20.491Z,2.20
2022-12-04T17:07:50.055Z,2.27
2022-12-04T17:10:23.459Z,2.00
2022-12-04T17:12:54.323Z,2.30
2022-12-04T17:15:22.439Z,2.10
2022-12-04T17:17:51.017Z,2.10
2022-12-04T17:20:21.969Z,2.20
2022-12-04T17:22:51.507Z,2.40
2022-12-04T17:25:20.046Z,2.43
2022-12-04T17:27:48.116Z,2.53
2022-12-04T17:30:16.864Z,2.30
2022-12-04T17:32:44.956Z,2.10
2022-12-04T17:35:13.828Z,2.00
2022-12-04T17:37:42.144Z,2.30
2022-12-04T17:40:13.117Z,2.50
2022-12-04T17:42:41.424Z,2.40
2022-12-04T17:45:11.677Z,2.60
2022-12-04T17:47:40.054Z,2.40
2022-12-04T17:50:08.974Z,2.50
2022-12-04T17:52:37.016Z,2.43
2022-12-04T17:55:05.556Z,2.50
2022-12-04T17:57:35.011Z,2.40
2022-12-04T18:00:03.139Z,2.50
2022-12-04T18:02:31.361Z,2.53
2022-12-04T18:04:59.555Z,2.50
2022-12-04T18:07:27.729Z,2.40
2022-12-04T18:09:56.285Z,2.40
2022-12-04T18:12:24.620Z,2.50
2022-12-04T18:14:54.596Z,2.40
2022-12-04T18:17:22.882Z,2.50
2022-12-04T18:19:50.994Z,2.50
2022-12-04T18:22:19.148Z,2.50
2022-12-04T18:24:47.162Z,2.70
2022-12-04T18:27:15.439Z,2.70
2022-12-04T18:29:43.581Z,2.50
2022-12-04T18:32:13.063Z,2.50
2022-12-04T18:34:41.315Z,2.60
2022-12-04T18:37:09.356Z,2.50
2022-12-04T18:39:37.381Z,2.60
2022-12-04T18:42:05.792Z,2.30
2022-12-04T18:44:33.803Z,2.80
2022-12-04T18:47:01.794Z,2.40
2022-12-04T18:49:31.923Z,2.50
2022-12-04T18:52:00.478Z,2.50
2022-12-04T18:54:28.464Z,2.60
2022-12-04T18:56:56.520Z,2.70
2022-12-04T18:59:26.404Z,3.00
2022-12-04T19:01:55.555Z,2.90
2022-12-04T19:04:25.376Z,3.00
2022-12-04T19:06:56.768Z,2.80
2022-12-04T19:10:09.911Z,2.70
2022-12-04T19:12:14.865Z,2.90
2022-12-04T19:14:43.004Z,2.80
2022-12-04T19:17:11.879Z,2.93
2022-12-04T19:19:40.132Z,2.80
2022-12-04T19:22:09.541Z,2.90
2022-12-04T19:24:37.616Z,2.90
2022-12-04T19:27:11.207Z,2.83
2022-12-04T19:29:41.442Z,2.90
2022-12-04T19:32:10.712Z,3.20
2022-12-04T19:34:39.044Z,3.00
2022-12-04T19:37:07.685Z,3.07
2022-12-04T19:39:37.383Z,3.00
2022-12-04T19:42:05.525Z,2.90
2022-12-04T19:44:49.743Z,2.80
2022-12-04T19:47:18.376Z,2.83
2022-12-04T19:49:46.670Z,2.70
2022-12-04T19:52:14.934Z,3.00
2022-12-04T19:54:45.083Z,3.20
2022-12-04T19:57:15.895Z,2.80
2022-12-04T19:59:46.488Z,2.80
2022-12-04T20:02:16.118Z,2.70
2022-12-04T20:04:44.444Z,2.80
2022-12-04T20:07:12.583Z,2.80
2022-12-04T20:09:40.941Z,2.60
2022-12-04T20:12:13.393Z,2.70
2022-12-04T20:14:41.508Z,2.83
2022-12-04T20:17:09.960Z,2.60
2022-12-04T20:19:38.227Z,2.70
2022-12-04T20:22:06.511Z,3.00
2022-12-04T20:24:34.670Z,2.90
2022-12-04T20:27:03.308Z,3.00
2022-12-04T20:29:32.712Z,2.80
2022-12-04T20:32:00.694Z,2.67
2022-12-04T20:34:28.767Z,3.00
2022-12-04T20:36:58.034Z,3.10
2022-12-04T20:39:27.189Z,2.77
2022-12-04T20:41:55.204Z,2.90
2022-12-04T20:44:23.204Z,3.00
2022-12-04T20:46:53.495Z,3.20
2022-12-04T20:49:22.556Z,2.90
2022-12-04T20:51:52.689Z,3.10
2022-12-04T20:54:22.361Z,2.93
2022-12-04T20:56:53.003Z,3.20
2022-12-04T20:59:23.219Z,3.00
2022-12-04T21:01:53.921Z,2.90
2022-12-04T21:04:22.148Z,3.10
2022-12-04T21:06:50.341Z,2.53
2022-12-04T21:09:21.764Z,2.80
2022-12-04T21:11:51.685Z,2.80
2022-12-04T21:14:40.053Z,3.00
2022-12-04T21:17:11.987Z,3.20
2022-12-04T21:19:40.509Z,3.17
2022-12-04T21:22:08.670Z,2.90
2022-12-04T21:24:38.908Z,3.10
2022-12-04T21:27:09.201Z,3.20
2022-12-04T21:29:38.158Z,3.10
2022-12-04T21:32:08.299Z,2.90
2022-12-04T21:34:40.406Z,3.00
2022-12-04T21:37:08.593Z,2.93
2022-12-04T21:39:37.082Z,3.10
2022-12-04T21:42:26.006Z,3.10
2022-12-04T21:44:54.060Z,2.90
2022-12-04T21:47:22.400Z,2.90
2022-12-04T21:49:51.909Z,2.87
2022-12-04T21:52:20.614Z,3.20
2022-12-04T21:54:51.003Z,2.90
2022-12-04T21:57:19.696Z,2.77
2022-12-04T21:59:48.074Z,3.00
2022-12-04T22:02:17.088Z,2.70
2022-12-04T22:04:45.305Z,2.87
2022-12-04T22:07:14.869Z,3.00
2022-12-04T22:09:43.193Z,2.90
